createdAt,value
2023-03-04T00:01:29.343Z,100300.16
2023-03-04T00:04:01.833Z,100300.13
2023-03-04T00:06:40.533Z,100306.94
2023-03-04T00:09:31.261Z,100310.31
2023-03-04T00:12:14.764Z,100305.25
2023-03-04T00:14:58.424Z,100312.03
2023-03-04T00:17:49.205Z,100310.31
2023-03-04T00:20:30.332Z,100306.97
2023-03-04T00:23:05.866Z,100312.88
2023-03-04T00:25:54.484Z,100306.09
2023-03-04T00:28:32.567Z,100306.94
2023-03-04T00:31:18.128Z,100309.50
2023-03-04T00:34:06.368Z,100304.41
2023-03-04T00:36:47.302Z,100308.66
2023-03-04T00:39:47.317Z,100308.63
2023-03-04T00:42:33.756Z,100315.41
2023-03-04T00:45:24.316Z,100317.13
2023-03-04T00:48:04.345Z,100314.59
2023-03-04T00:50:52.467Z,100314.56
2023-03-04T00:53:38.300Z,100320.50
2023-03-04T00:56:27.278Z,100318.81
2023-03-04T00:59:07.030Z,100320.50
2023-03-04T01:02:05.126Z,100313.72
2023-03-04T01:04:56.876Z,100313.72
2023-03-04T01:07:33.898Z,100308.66
2023-03-04T01:10:19.689Z,100310.34
2023-03-04T01:13:07.919Z,100312.88
2023-03-04T01:16:13.549Z,100310.31
2023-03-04T01:18:47.579Z,100311.19
2023-03-04T01:21:37.165Z,100313.72
2023-03-04T01:24:34.370Z,100315.44
2023-03-04T01:27:21.497Z,100306.94
2023-03-04T01:30:03.957Z,100307.81
2023-03-04T01:32:57.220Z,100300.16
2023-03-04T01:35:57.922Z,100299.34
2023-03-04T01:38:55.189Z,100293.38
2023-03-04T01:41:32.450Z,100296.78
2023-03-04T01:44:14.545Z,100289.19
2023-03-04T01:46:59.270Z,100290.00
2023-03-04T01:49:50.070Z,100285.78
2023-03-04T01:52:51.398Z,100286.63
2023-03-04T01:55:26.213Z,100279.84
2023-03-04T01:58:04.081Z,100281.56
2023-03-04T02:01:03.978Z,100284.91
2023-03-04T02:03:37.419Z,100285.75
2023-03-04T02:06:47.133Z,100278.16
2023-03-04T02:09:37.270Z,100269.69
2023-03-04T02:12:21.339Z,100273.88
2023-03-04T02:15:05.136Z,100263.72
2023-03-04T02:17:48.683Z,100261.22
2023-03-04T02:20:48.141Z,100261.22
2023-03-04T02:23:48.791Z,100260.34
2023-03-04T02:26:55.339Z,100262.03
2023-03-04T02:29:39.566Z,100264.56
2023-03-04T02:32:19.469Z,100258.66
2023-03-04T02:35:03.358Z,100262.88
2023-03-04T02:37:36.733Z,100262.00
2023-03-04T02:40:12.579Z,100257.78
2023-03-04T02:43:12.568Z,100257.78
2023-03-04T02:45:55.162Z,100253.56
2023-03-04T02:48:52.963Z,100256.94
2023-03-04T02:51:37.460Z,100254.38
2023-03-04T02:54:34.228Z,100240.88
2023-03-04T02:57:12.085Z,100247.63
2023-03-04T02:59:50.035Z,100246.81
2023-03-04T03:02:31.788Z,100251.88
2023-03-04T03:05:16.475Z,100256.06
2023-03-04T03:07:57.669Z,100251.84
2023-03-04T03:11:04.345Z,100247.59
2023-03-04T03:14:02.551Z,100251.00
2023-03-04T03:17:02.806Z,100250.16
2023-03-04T03:19:44.890Z,100240.03
2023-03-04T03:22:17.919Z,100240.91
2023-03-04T03:25:04.110Z,100246.84
2023-03-04T03:27:39.745Z,100245.97
2023-03-04T03:30:29.980Z,100240.91
2023-03-04T03:33:41.942Z,100242.59
2023-03-04T03:36:22.380Z,100238.38
2023-03-04T03:39:05.222Z,100239.22
2023-03-04T03:41:41.871Z,100235.81
2023-03-04T03:44:16.427Z,100238.34
2023-03-04T03:47:10.485Z,100240.91
2023-03-04T03:50:23.220Z,100243.44
2023-03-04T03:53:19.288Z,100238.34
2023-03-04T03:55:50.829Z,100240.88
2023-03-04T03:58:23.536Z,100241.69
2023-03-04T04:01:09.069Z,100236.59
2023-03-04T04:03:40.403Z,100238.25
2023-03-04T04:06:23.566Z,100231.47
2023-03-04T04:09:10.222Z,100239.06
2023-03-04T04:12:18.068Z,100247.56
2023-03-04T04:14:53.397Z,100242.50
2023-03-04T04:17:44.065Z,100237.41
2023-03-04T04:20:26.286Z,100236.53
2023-03-04T04:23:14.135Z,100235.72
2023-03-04T04:26:01.104Z,100233.19
2023-03-04T04:28:50.378Z,100237.44
2023-03-04T04:31:59.070Z,100235.78
2023-03-04T04:34:50.795Z,100239.13
2023-03-04T04:37:32.215Z,100239.97
2023-03-04T04:40:15.657Z,100239.13
2023-03-04T04:42:57.533Z,100230.66
2023-03-04T04:45:50.252Z,100236.56
2023-03-04T04:48:41.236Z,100239.09
2023-03-04T04:51:40.790Z,100239.09
2023-03-04T04:54:14.595Z,100234.03
2023-03-04T04:57:01.364Z,100238.25
2023-03-04T04:59:58.572Z,100233.16
2023-03-04T05:02:31.610Z,100239.97
2023-03-04T05:05:29.316Z,100234.00
2023-03-04T05:08:23.403Z,100235.72
2023-03-04T05:10:55.809Z,100226.38
2023-03-04T05:13:38.941Z,100228.88
2023-03-04T05:16:27.220Z,100224.63
2023-03-04T05:19:29.600Z,100230.53
2023-03-04T05:22:11.260Z,100234.78
2023-03-04T05:24:51.966Z,100227.13
2023-03-04T05:27:27.630Z,100239.84
2023-03-04T05:30:22.573Z,100232.22
2023-03-04T05:32:59.927Z,100237.31
2023-03-04T05:36:03.816Z,100229.69
2023-03-04T05:39:00.700Z,100230.53
2023-03-04T05:41:38.066Z,100227.16
2023-03-04T05:44:28.628Z,100228.00
2023-03-04T05:47:50.390Z,100222.88
2023-03-04T05:50:41.960Z,100222.06
2023-03-04T05:53:42.836Z,100220.34
2023-03-04T05:56:23.223Z,100229.63
2023-03-04T05:59:02.722Z,100231.31
2023-03-04T06:01:46.672Z,100228.72
2023-03-04T06:04:20.424Z,100235.50
2023-03-04T06:06:51.345Z,100232.16
2023-03-04T06:09:50.109Z,100238.06
2023-03-04T06:12:48.174Z,100243.97
2023-03-04T06:15:47.856Z,100248.19
2023-03-04T06:18:22.807Z,100253.28
2023-03-04T06:21:01.261Z,100251.59
2023-03-04T06:23:39.052Z,100249.91
2023-03-04T06:26:27.209Z,100251.59
2023-03-04T06:29:06.078Z,100261.75
2023-03-04T06:31:45.539Z,100254.94
2023-03-04T06:34:30.490Z,100257.38
2023-03-04T06:37:32.867Z,100261.56
2023-03-04T06:40:19.177Z,100261.53
2023-03-04T06:43:06.568Z,100265.75
2023-03-04T06:45:41.788Z,100269.94
2023-03-04T06:48:35.903Z,100269.03
2023-03-04T06:51:39.103Z,100271.50
2023-03-04T06:54:49.018Z,100276.56
2023-03-04T06:57:43.255Z,100269.72
2023-03-04T07:00:35.210Z,100280.75
2023-03-04T07:03:06.867Z,100276.47
2023-03-04T07:05:37.739Z,100279.81
2023-03-04T07:08:28.038Z,100281.50
2023-03-04T07:11:04.447Z,100289.97
2023-03-04T07:14:03.066Z,100286.56
2023-03-04T07:16:43.268Z,100299.25
2023-03-04T07:19:25.350Z,100300.06
2023-03-04T07:22:04.828Z,100295.78
2023-03-04T07:24:53.811Z,100293.25
2023-03-04T07:27:38.903Z,100288.13
2023-03-04T07:30:36.537Z,100293.16
2023-03-04T07:33:35.391Z,100300.75
2023-03-04T07:36:20.554Z,100305.03
2023-03-04T07:39:09.990Z,100305.78
2023-03-04T07:41:56.781Z,100309.97
2023-03-04T07:44:58.562Z,100300.56
2023-03-04T07:47:41.823Z,100308.22
2023-03-04T07:50:25.326Z,100305.63
2023-03-04T07:52:59.608Z,100312.34
2023-03-04T07:55:32.504Z,100312.28
2023-03-04T07:58:31.050Z,100312.19
2023-03-04T08:01:23.300Z,100316.47
2023-03-04T08:04:08.474Z,100319.84
2023-03-04T08:06:45.355Z,100312.13
2023-03-04T08:09:33.469Z,100308.59
2023-03-04T08:12:06.457Z,100301.66
2023-03-04T08:15:03.513Z,100310.84
2023-03-04T08:18:07.339Z,100308.16
2023-03-04T08:20:50.360Z,100309.81
2023-03-04T08:23:46.500Z,100310.59
2023-03-04T08:26:33.360Z,100312.25
2023-03-04T08:29:23.458Z,100313.09
2023-03-04T08:32:12.092Z,100311.31
2023-03-04T08:34:49.796Z,100312.03
2023-03-04T08:37:26.543Z,100319.59
2023-03-04T08:40:26.533Z,100315.19
2023-03-04T08:43:02.806Z,100320.25
2023-03-04T08:45:41.822Z,100316.78
2023-03-04T08:48:14.406Z,100321.78
2023-03-04T08:50:55.916Z,100316.56
2023-03-04T08:53:29.157Z,100310.47
2023-03-04T08:56:04.004Z,100319.78
2023-03-04T08:58:39.254Z,100312.94
2023-03-04T09:01:21.407Z,100311.13
2023-03-04T09:03:56.580Z,100310.13
2023-03-04T09:06:40.433Z,100309.06
2023-03-04T09:09:15.443Z,100314.03
2023-03-04T09:11:52.049Z,100316.41
2023-03-04T09:14:39.770Z,100309.47
2023-03-04T09:17:14.137Z,100316.13
2023-03-04T09:20:04.433Z,100320.22
2023-03-04T09:22:41.017Z,100313.09
2023-03-04T09:25:20.230Z,100306.97
2023-03-04T09:28:09.444Z,100307.00
2023-03-04T09:30:50.783Z,100301.97
2023-03-04T09:33:32.211Z,100307.91
2023-03-04T09:36:20.818Z,100295.88
2023-03-04T09:39:07.766Z,100298.34
2023-03-04T09:41:47.734Z,100302.53
2023-03-04T09:44:26.606Z,100305.78
2023-03-04T09:47:06.132Z,100300.69
2023-03-04T09:49:47.695Z,100300.81
2023-03-04T09:52:45.270Z,100304.91
2023-03-04T09:55:38.890Z,100300.47
2023-03-04T09:58:43.751Z,100305.75
2023-03-04T10:01:27.652Z,100306.69
2023-03-04T10:04:12.663Z,100305.84
2023-03-04T10:06:47.267Z,100313.41
2023-03-04T10:09:29.763Z,100316.84
2023-03-04T10:12:21.226Z,100308.34
2023-03-04T10:15:03.577Z,100313.28
2023-03-04T10:17:47.990Z,100309.78
2023-03-04T10:20:26.678Z,100311.22
2023-03-04T10:23:10.835Z,100308.41
2023-03-04T10:25:59.299Z,100309.66
2023-03-04T10:28:43.830Z,100309.44
2023-03-04T10:31:32.063Z,100304.38
2023-03-04T10:34:12.882Z,100309.00
2023-03-04T10:37:11.386Z,100307.25
2023-03-04T10:39:57.464Z,100309.66
2023-03-04T10:42:53.315Z,100307.09
2023-03-04T10:45:37.049Z,100306.97
2023-03-04T10:48:27.826Z,100303.38
2023-03-04T10:51:23.551Z,100297.16
2023-03-04T10:54:03.106Z,100295.31
2023-03-04T10:56:47.840Z,100293.44
2023-03-04T10:59:51.863Z,100287.94
2023-03-04T11:02:35.171Z,100281.44
2023-03-04T11:05:22.995Z,100271.69
2023-03-04T11:08:02.844Z,100268.00
2023-03-04T11:10:50.770Z,100275.34
2023-03-04T11:13:31.262Z,100269.28
2023-03-04T11:16:31.460Z,100267.56
2023-03-04T11:19:20.162Z,100261.38
2023-03-04T11:22:03.516Z,100251.72
2023-03-04T11:24:50.432Z,100250.72
2023-03-04T11:27:42.483Z,100238.97
2023-03-04T11:30:39.331Z,100237.78
2023-03-04T11:33:29.409Z,100243.63
2023-03-04T11:36:33.998Z,100243.72
2023-03-04T11:39:29.385Z,100237.88
2023-03-04T11:42:09.104Z,100237.78
2023-03-04T11:44:45.290Z,100239.16
2023-03-04T11:47:38.527Z,100239.59
2023-03-04T11:50:43.422Z,100232.78
2023-03-04T11:53:41.071Z,100226.94
2023-03-04T11:56:41.064Z,100236.97
2023-03-04T12:00:07.762Z,100227.84
2023-03-04T12:03:07.196Z,100225.59
2023-03-04T12:05:57.609Z,100222.72
2023-03-04T12:09:04.671Z,100222.31
2023-03-04T12:11:57.828Z,100224.25
2023-03-04T12:14:41.792Z,100220.00
2023-03-04T12:17:52.468Z,100219.28
2023-03-04T12:20:49.519Z,100217.03
2023-03-04T12:23:52.640Z,100215.44
2023-03-04T12:26:53.202Z,100214.50
2023-03-04T12:29:38.654Z,100211.25
2023-03-04T12:32:24.111Z,100219.19
2023-03-04T12:35:43.236Z,100221.03
2023-03-04T12:38:44.023Z,100218.59
2023-03-04T12:41:39.471Z,100220.41
2023-03-04T12:44:19.579Z,100212.56
2023-03-04T12:47:19.023Z,100211.53
2023-03-04T12:50:10.251Z,100202.88
2023-03-04T12:52:58.673Z,100203.66
2023-03-04T12:55:40.061Z,100201.72
2023-03-04T12:58:33.528Z,100186.81
2023-03-04T13:01:30.463Z,100186.59
2023-03-04T13:04:30.839Z,100184.13
2023-03-04T13:07:28.011Z,100184.38
2023-03-04T13:10:17.574Z,100183.78
2023-03-04T13:12:55.964Z,100174.47
2023-03-04T13:15:46.462Z,100185.66
2023-03-04T13:18:40.159Z,100177.97
2023-03-04T13:21:27.106Z,100177.16
2023-03-04T13:23:59.292Z,100184.16
2023-03-04T13:26:37.853Z,100176.72
2023-03-04T13:29:39.703Z,100183.75
2023-03-04T13:32:44.306Z,100179.44
2023-03-04T13:36:04.472Z,100179.34
2023-03-04T13:38:42.911Z,100167.31
2023-03-04T13:41:37.515Z,100164.72
2023-03-04T13:45:03.000Z,100162.94
2023-03-04T13:47:56.005Z,100152.63
2023-03-04T13:50:50.326Z,100152.56
2023-03-04T13:53:55.549Z,100143.81
2023-03-04T13:56:43.551Z,100137.59
2023-03-04T13:59:36.139Z,100145.81
2023-03-04T14:02:23.015Z,100141.31
2023-03-04T14:05:03.600Z,100140.03
2023-03-04T14:07:43.595Z,100143.97
2023-03-04T14:10:29.479Z,100142.06
2023-03-04T14:13:11.614Z,100140.16
2023-03-04T14:16:03.674Z,100136.75
2023-03-04T14:18:41.435Z,100134.63
2023-03-04T14:21:18.838Z,100134.16
2023-03-04T14:24:06.392Z,100133.41
2023-03-04T14:26:45.151Z,100127.41
2023-03-04T14:29:32.273Z,100127.41
2023-03-04T14:32:09.102Z,100121.88
2023-03-04T14:34:42.023Z,100125.59
2023-03-04T14:37:25.852Z,100120.47
2023-03-04T14:40:08.779Z,100118.00
2023-03-04T14:43:16.359Z,100117.38
2023-03-04T14:45:56.319Z,100112.38
2023-03-04T14:48:39.682Z,100109.00
2023-03-04T14:51:46.942Z,100103.56
2023-03-04T14:54:49.486Z,100093.97
2023-03-04T14:57:39.771Z,100087.66
2023-03-04T15:00:41.417Z,100088.19
2023-03-04T15:03:30.646Z,100085.38
2023-03-04T15:06:18.332Z,100082.78
2023-03-04T15:09:02.710Z,100083.47
2023-03-04T15:11:55.913Z,100084.88
2023-03-04T15:14:51.556Z,100064.06
2023-03-04T15:17:39.272Z,100072.47
2023-03-04T15:20:38.230Z,100064.72
2023-03-04T15:23:15.534Z,100070.41
2023-03-04T15:25:59.863Z,100073.72
2023-03-04T15:28:42.840Z,100073.69
2023-03-04T15:31:22.581Z,100070.47
2023-03-04T15:34:20.113Z,100070.94
2023-03-04T15:37:01.108Z,100071.94
2023-03-04T15:39:46.293Z,100069.47
2023-03-04T15:42:31.672Z,100076.38
2023-03-04T15:45:27.673Z,100069.66
2023-03-04T15:48:06.718Z,100067.22
2023-03-04T15:51:00.769Z,100066.66
2023-03-04T15:53:46.800Z,100068.69
2023-03-04T15:56:22.601Z,100066.25
2023-03-04T15:58:59.640Z,100056.13
2023-03-04T16:01:36.121Z,100056.16
2023-03-04T16:04:20.331Z,100061.97
2023-03-04T16:07:03.780Z,100059.09
2023-03-04T16:09:59.851Z,100060.56
2023-03-04T16:12:55.695Z,100041.69
2023-03-04T16:15:29.918Z,100061.22
2023-03-04T16:18:24.175Z,100049.06
2023-03-04T16:21:20.991Z,100048.03
2023-03-04T16:24:38.231Z,100048.91
2023-03-04T16:27:18.546Z,100049.69
2023-03-04T16:29:59.170Z,100056.34
2023-03-04T16:32:49.190Z,100050.97
2023-03-04T16:35:38.539Z,100055.13
2023-03-04T16:38:35.932Z,100047.44
2023-03-04T16:41:19.932Z,100053.44
2023-03-04T16:43:57.079Z,100049.13
2023-03-04T16:46:31.221Z,100045.66
2023-03-04T16:49:24.340Z,100052.50
2023-03-04T16:52:21.457Z,100048.22
2023-03-04T16:55:19.219Z,100047.56
2023-03-04T16:58:18.789Z,100046.88
2023-03-04T17:01:15.369Z,100053.03
2023-03-04T17:03:57.002Z,100047.25
2023-03-04T17:07:21.618Z,100039.59
2023-03-04T17:10:02.288Z,100051.53
2023-03-04T17:12:39.620Z,100049.88
2023-03-04T17:15:32.632Z,100049.78
2023-03-04T17:18:20.856Z,100049.78
2023-03-04T17:21:11.427Z,100060.03
2023-03-04T17:24:00.332Z,100053.25
2023-03-04T17:26:46.190Z,100052.50
2023-03-04T17:29:16.999Z,100067.31
2023-03-04T17:32:06.911Z,100062.19
2023-03-04T17:34:42.561Z,100067.22
2023-03-04T17:37:42.312Z,100070.88
2023-03-04T17:40:34.322Z,100064.13
2023-03-04T17:43:27.104Z,100060.91
2023-03-04T17:46:11.271Z,100063.56
2023-03-04T17:48:56.890Z,100060.94
2023-03-04T17:51:49.517Z,100056.69
2023-03-04T17:54:40.950Z,100060.13
2023-03-04T17:57:16.292Z,100058.44
2023-03-04T18:00:07.499Z,100066.03
2023-03-04T18:02:50.413Z,100062.69
2023-03-04T18:05:50.340Z,100057.84
2023-03-04T18:08:34.818Z,100050.13
2023-03-04T18:11:12.500Z,100049.28
2023-03-04T18:13:49.386Z,100054.41
2023-03-04T18:16:28.538Z,100055.19
2023-03-04T18:19:09.530Z,100051.97
2023-03-04T18:21:53.974Z,100053.88
2023-03-04T18:24:48.531Z,100052.22
2023-03-04T18:27:46.233Z,100046.97
2023-03-04T18:30:29.619Z,100035.97
2023-03-04T18:33:03.207Z,100039.47
2023-03-04T18:35:56.180Z,100036.09
2023-03-04T18:38:58.351Z,100037.00
2023-03-04T18:41:30.329Z,100029.44
2023-03-04T18:44:14.503Z,100034.56
2023-03-04T18:46:52.207Z,100031.94
2023-03-04T18:49:44.333Z,100029.56
2023-03-04T18:52:28.732Z,100028.78
2023-03-04T18:55:25.116Z,100034.72
2023-03-04T18:58:05.943Z,100035.66
2023-03-04T19:00:45.571Z,100041.72
2023-03-04T19:03:34.458Z,100035.81
2023-03-04T19:06:09.307Z,100032.44
2023-03-04T19:09:02.897Z,100038.38
2023-03-04T19:12:05.645Z,100036.59
2023-03-04T19:14:45.028Z,100037.41
2023-03-04T19:17:35.299Z,100039.94
2023-03-04T19:20:17.841Z,100035.63
2023-03-04T19:23:01.686Z,100030.41
2023-03-04T19:25:48.388Z,100029.50
2023-03-04T19:28:39.906Z,100033.97
2023-03-04T19:31:49.322Z,100033.25
2023-03-04T19:34:28.729Z,100039.16
2023-03-04T19:37:12.196Z,100027.03
2023-03-04T19:39:49.465Z,100029.38
2023-03-04T19:42:33.435Z,100016.53
2023-03-04T19:45:13.372Z,100016.47
2023-03-04T19:47:54.413Z,100030.84
2023-03-04T19:50:46.911Z,100030.78
2023-03-04T19:53:32.914Z,100027.47
2023-03-04T19:56:23.009Z,100025.94
2023-03-04T19:59:05.293Z,100025.97
2023-03-04T20:02:16.353Z,100027.94
2023-03-04T20:05:05.369Z,100025.53
2023-03-04T20:07:40.407Z,100023.78
2023-03-04T20:10:16.276Z,100024.50
2023-03-04T20:13:09.461Z,100019.22
2023-03-04T20:15:52.508Z,100017.47
2023-03-04T20:18:48.366Z,100018.28
2023-03-04T20:21:45.499Z,100020.09
2023-03-04T20:24:32.421Z,100011.66
2023-03-04T20:27:04.820Z,100022.88
2023-03-04T20:29:45.028Z,100026.31
2023-03-04T20:32:35.920Z,100027.28
2023-03-04T20:35:42.134Z,100029.88
2023-03-04T20:38:21.329Z,100034.19
2023-03-04T20:41:06.129Z,100024.72
2023-03-04T20:43:55.893Z,100022.16
2023-03-04T20:46:58.268Z,100023.88
2023-03-04T20:49:40.792Z,100020.53
2023-03-04T20:52:41.342Z,100020.56
2023-03-04T20:55:34.970Z,100018.91
2023-03-04T20:58:25.984Z,100016.19
2023-03-04T21:01:14.352Z,100012.53
2023-03-04T21:03:53.167Z,100010.75
2023-03-04T21:06:40.084Z,100013.38
2023-03-04T21:09:27.187Z,100010.06
2023-03-04T21:12:24.499Z,100009.25
2023-03-04T21:15:12.995Z,100005.97
2023-03-04T21:17:49.074Z,100005.25
2023-03-04T21:20:27.910Z,100003.50
2023-03-04T21:23:15.140Z,100008.50
2023-03-04T21:25:58.705Z,100012.59
2023-03-04T21:28:47.678Z,100011.63
2023-03-04T21:31:30.667Z,100004.63
2023-03-04T21:34:39.940Z,99999.38
2023-03-04T21:37:24.401Z,100003.56
2023-03-04T21:40:20.363Z,100005.97
2023-03-04T21:43:11.173Z,100005.16
2023-03-04T21:45:47.190Z,100001.13
2023-03-04T21:48:21.233Z,99996.03
2023-03-04T21:50:54.520Z,100000.25
2023-03-04T21:53:39.169Z,99993.34
2023-03-04T21:56:28.775Z,99995.78
2023-03-04T21:59:19.634Z,99981.94
2023-03-04T22:01:58.194Z,99981.91
2023-03-04T22:04:57.996Z,99984.59
2023-03-04T22:07:40.424Z,99980.28
2023-03-04T22:10:31.437Z,99984.59
2023-03-04T22:13:03.731Z,99989.78
2023-03-04T22:15:50.739Z,99984.66
2023-03-04T22:18:57.716Z,99979.53
2023-03-04T22:21:32.287Z,99980.25
2023-03-04T22:24:32.846Z,99973.38
2023-03-04T22:27:22.190Z,99972.50
2023-03-04T22:30:01.051Z,99976.66
2023-03-04T22:32:39.806Z,99968.91
2023-03-04T22:35:24.003Z,99963.75
2023-03-04T22:38:17.436Z,99967.16
2023-03-04T22:40:54.008Z,99966.34
2023-03-04T22:43:42.176Z,99966.38
2023-03-04T22:46:23.214Z,99962.28
2023-03-04T22:49:05.112Z,99963.28
2023-03-04T22:51:38.291Z,99957.44
2023-03-04T22:54:15.768Z,99959.25
2023-03-04T22:57:02.303Z,99974.66
2023-03-04T22:59:38.244Z,99958.44
2023-03-04T23:02:21.393Z,99970.50
2023-03-04T23:05:05.339Z,99958.53
2023-03-04T23:07:44.262Z,99970.50
2023-03-04T23:10:33.690Z,99964.56
2023-03-04T23:13:38.519Z,99953.34
2023-03-04T23:16:28.722Z,99953.28
2023-03-04T23:19:18.676Z,99957.47
2023-03-04T23:22:15.250Z,99948.94
2023-03-04T23:25:19.332Z,99953.16
2023-03-04T23:28:13.696Z,99959.28
2023-03-04T23:30:51.285Z,99955.09
2023-03-04T23:33:31.794Z,99961.25
2023-03-04T23:36:19.116Z,99954.41
2023-03-04T23:39:13.027Z,99965.69
2023-03-04T23:41:48.413Z,99951.19
2023-03-04T23:44:43.670Z,99952.13
2023-03-04T23:47:14.916Z,99946.03
2023-03-04T23:50:22.850Z,99946.13
2023-03-04T23:53:19.054Z,99938.50
2023-03-04T23:56:01.116Z,99941.97
2023-03-04T23:58:47.316Z,99937.81
